CDT,Max TemperatureF,Mean TemperatureF,Min TemperatureF,Max Dew PointF,MeanDew PointF,Min DewpointF,Max Humidity, Mean Humidity, Min Humidity, Max Sea Level PressureIn, Mean Sea Level PressureIn, Min Sea Level PressureIn, Max VisibilityMiles, Mean VisibilityMiles, Min VisibilityMiles, Max Wind SpeedMPH, Mean Wind SpeedMPH, Max Gust SpeedMPH,PrecipitationIn, CloudCover, Events, WindDirDegrees
2013-10-1,80,66,52,60,53,49,90,64,38,29.94,29.89,29.83,10,10,10,18,9,24,0.00,0,,142
2013-10-2,83,71,59,61,57,52,93,65,36,29.95,29.90,29.84,10,10,7,23,15,29,0.00,0,,164
2013-10-3,89,72,57,61,47,29,93,50,11,29.88,29.81,29.73,10,10,7,28,15,33,0.00,0,,197
2013-10-4,84,68,50,59,46,29,84,48,16,30.09,29.86,29.77,10,10,10,24,15,32,0.00,0,,232
2013-10-5,63,52,41,30,24,19,58,38,20,30.23,30.17,30.10,10,10,10,23,15,31,0.00,2,,348
2013-10-6,72,54,36,31,25,20,59,36,15,30.25,30.20,30.14,10,10,10,21,8,30,0.00,0,,312
2013-10-7,79,62,45,37,34,30,60,37,18,30.26,30.18,30.10,10,10,10,17,6,24,0.00,0,,224
2013-10-8,79,64,50,36,33,27,55,33,15,30.11,30.00,29.92,10,10,10,24,15,30,0.00,0,,178
2013-10-9,77,66,54,42,39,35,53,41,26,30.00,29.95,29.92,10,10,7,24,17,31,0.00,0,,169
2013-10-10,79,66,54,56,50,45,78,58,38,29.97,29.88,29.74,10,10,10,33,18,43,0.00,0,Rain,169
2013-10-11,78,62,45,54,30,16,75,37,10,29.95,29.85,29.80,10,10,10,20,12,28,0.00,0,,231
2013-10-12,67,53,40,42,37,23,89,58,33,30.23,30.12,29.96,10,10,10,18,9,23,0.00,0,,62
2013-10-13,65,54,44,58,50,37,96,85,64,30.29,30.21,30.13,10,8,0,36,11,41,0.00,5,Fog-Rain-Thunderstorm,128
2013-10-14,76,66,54,62,56,40,96,75,41,30.16,29.99,29.86,10,8,1,24,15,29,0.00,5,,198
2013-10-15,57,48,39,39,33,29,77,56,35,30.22,30.15,30.05,10,10,10,23,15,32,0.00,3,,14
2013-10-16,51,44,38,40,34,30,92,73,57,30.23,30.16,30.07,10,10,2,14,9,18,0.00,6,Rain,311
2013-10-17,66,51,36,40,35,28,90,59,25,30.10,30.04,29.97,10,10,10,15,9,,0.00,1,,160
2013-10-18,52,40,27,45,36,25,94,82,63,30.23,30.08,29.92,10,9,2,25,13,34,0.00,6,Rain,57
2013-10-19,64,46,27,33,27,22,92,60,20,30.22,30.12,30.00,10,10,10,18,10,24,0.00,0,,251
2013-10-20,73,55,37,37,31,25,80,46,17,30.00,29.90,29.81,10,10,10,21,11,26,0.00,0,,279
2013-10-21,59,49,39,37,34,29,77,58,32,30.21,30.13,30.00,10,10,10,15,10,22,0.00,1,,18
2013-10-22,73,56,40,35,31,28,72,44,19,30.19,30.16,30.12,10,10,5,17,10,25,0.00,0,,281
2013-10-23,80,60,41,34,30,22,69,42,13,30.16,30.11,30.05,10,10,10,25,11,33,0.00,0,,205
2013-10-24,60,50,39,39,35,32,86,61,38,30.34,30.27,30.17,10,10,10,21,11,28,0.00,0,,109
2013-10-25,66,50,33,44,36,29,85,66,39,30.41,30.29,30.17,10,10,10,20,11,26,0.00,1,,161
2013-10-26,59,51,42,48,41,31,83,67,45,30.26,30.19,30.12,10,10,1,23,10,31,0.00,4,Rain,312
2013-10-27,73,54,34,32,29,25,77,43,19,30.24,30.08,29.95,10,10,10,17,7,23,0.00,0,,226
2013-10-28,69,58,48,59,49,32,93,73,47,30.00,29.95,29.91,10,9,7,24,15,30,0.00,2,,180
2013-10-29,70,56,44,59,49,38,93,74,46,30.04,29.97,29.93,10,10,7,18,10,22,0.00,3,,179
2013-10-30,76,66,57,60,47,26,94,59,17,29.94,29.85,29.71,10,9,5,22,14,29,0.00,2,Rain-Thunderstorm,201
2013-10-31,62,50,39,49,32,22,82,50,22,29.93,29.81,29.68,10,10,10,33,14,40,0.00,1,,281